Time;durP1;ratioP1;P1;durP2;ratioP2;P2;SDS_P1;SDS_P2;PMS_P1;PMS_P2;Temp;Humidity;BMP_temperature;BMP_pressure;BME280_temperature;BME280_humidity;BME280_pressure;Samples;Min_cycle;Max_cycle;Signal;HPM_P1;HPM_P2
2023/05/21 00:00:19;;;;;;;3.50;3.40;;;20.00;66.70;;;;;;5087805;27;43416;-69
2023/05/21 00:02:48;;;;;;;3.10;3.10;;;20.00;67.20;;;;;;5086814;28;43709;-70
2023/05/21 00:05:17;;;;;;;3.20;3.10;;;20.00;68.00;;;;;;5086926;28;43446;-69
2023/05/21 00:07:45;;;;;;;3.20;3.20;;;20.10;67.00;;;;;;5086645;28;43525;-70
2023/05/21 00:10:14;;;;;;;3.50;3.40;;;20.20;66.80;;;;;;5087051;28;43604;-70
2023/05/21 00:12:43;;;;;;;3.00;3.00;;;20.20;66.70;;;;;;5086750;28;43688;-70
2023/05/21 00:15:11;;;;;;;3.30;3.30;;;20.20;66.60;;;;;;5087051;27;43473;-69
2023/05/21 00:17:39;;;;;;;3.40;3.30;;;20.10;66.90;;;;;;5087228;27;43342;-70
2023/05/21 00:20:08;;;;;;;3.33;3.33;;;20.10;66.90;;;;;;5085086;28;43496;-71
2023/05/21 00:22:36;;;;;;;3.07;3.07;;;20.10;66.80;;;;;;5086750;27;43598;-70
2023/05/21 00:25:05;;;;;;;3.30;3.20;;;20.10;66.70;;;;;;5090347;28;43426;-70
2023/05/21 00:27:33;;;;;;;3.20;3.20;;;20.10;66.70;;;;;;5090606;28;43396;-70
2023/05/21 00:30:02;;;;;;;3.13;3.10;;;20.00;67.10;;;;;;5082356;27;43942;-69
2023/05/21 00:32:30;;;;;;;2.97;2.97;;;20.00;67.30;;;;;;5084899;27;44607;-70
2023/05/21 00:34:58;;;;;;;3.40;3.30;;;20.00;67.10;;;;;;5089957;27;43442;-70
2023/05/21 00:37:28;;;;;;;3.23;3.23;;;20.00;67.00;;;;;;5090278;28;43383;-70
2023/05/21 00:39:56;;;;;;;3.40;3.30;;;20.00;67.00;;;;;;5087374;27;43553;-69
2023/05/21 00:42:26;;;;;;;3.00;3.00;;;20.00;67.20;;;;;;5088426;28;43821;-69
2023/05/21 00:44:54;;;;;;;3.10;3.10;;;20.00;67.50;;;;;;5089940;27;43384;-69
2023/05/21 00:47:23;;;;;;;3.33;3.23;;;20.00;67.50;;;;;;5088655;28;43423;-70
2023/05/21 00:49:52;;;;;;;3.07;3.07;;;19.90;67.20;;;;;;5090302;27;43986;-69
2023/05/21 00:52:21;;;;;;;3.33;3.33;;;19.90;67.00;;;;;;5087864;28;45819;-69
2023/05/21 00:54:50;;;;;;;3.30;3.30;;;19.90;67.00;;;;;;5089168;27;43404;-69
2023/05/21 00:57:19;;;;;;;3.10;3.10;;;19.90;67.50;;;;;;5088315;28;43943;-69
2023/05/21 00:59:47;;;;;;;2.93;2.93;;;20.00;67.60;;;;;;5088801;28;43909;-69
2023/05/21 01:02:17;;;;;;;3.50;3.40;;;20.10;67.20;;;;;;5088347;28;45730;-70
2023/05/21 01:04:46;;;;;;;3.13;3.13;;;20.20;66.70;;;;;;5082369;27;44497;-70
2023/05/21 01:07:14;;;;;;;3.40;3.30;;;20.40;66.20;;;;;;5090621;27;43545;-69
2023/05/21 01:09:42;;;;;;;3.40;3.30;;;20.40;66.20;;;;;;5089788;27;43929;-70
2023/05/21 01:12:10;;;;;;;3.50;3.40;;;20.40;66.10;;;;;;5089579;28;43763;-69
2023/05/21 01:14:38;;;;;;;2.93;2.93;;;20.30;66.10;;;;;;5089311;27;43609;-72
2023/05/21 01:17:09;;;;;;;3.60;3.50;;;20.30;66.20;;;;;;5089803;27;43441;-69
2023/05/21 01:19:37;;;;;;;3.13;3.10;;;20.20;66.70;;;;;;5090330;28;43406;-70
2023/05/21 01:22:07;;;;;;;3.63;3.53;;;20.20;67.00;;;;;;5087130;28;45626;-70
2023/05/21 01:24:37;;;;;;;3.00;3.00;;;20.10;66.90;;;;;;5087337;28;43819;-70
2023/05/21 01:27:06;;;;;;;3.27;3.27;;;20.10;66.80;;;;;;5087909;28;43555;-69
2023/05/21 01:29:34;;;;;;;3.50;3.30;;;20.10;66.80;;;;;;5090332;28;43790;-70
2023/05/21 01:32:05;;;;;;;3.27;3.17;;;20.00;66.90;;;;;;5087860;28;46067;-69
2023/05/21 01:34:35;;;;;;;3.50;3.40;;;20.00;67.40;;;;;;5082487;28;44925;-70
2023/05/21 01:37:08;;;;;;;3.30;3.20;;;20.00;67.40;;;;;;5087804;28;43498;-69
2023/05/21 01:39:39;;;;;;;3.20;3.10;;;20.00;67.20;;;;;;5087748;28;43448;-70
2023/05/21 01:42:09;;;;;;;3.50;3.40;;;20.00;67.10;;;;;;5087394;28;43607;-70
2023/05/21 01:44:37;;;;;;;3.50;3.40;;;20.00;67.20;;;;;;5089051;28;43373;-70
2023/05/21 01:47:05;;;;;;;4.07;3.87;;;19.90;67.50;;;;;;5087786;27;43495;-70
2023/05/21 01:49:33;;;;;;;3.60;3.50;;;20.00;67.70;;;;;;5090396;27;43390;-70
2023/05/21 01:52:01;;;;;;;3.17;3.10;;;20.10;67.30;;;;;;5087280;28;45961;-69
2023/05/21 01:54:29;;;;;;;3.60;3.50;;;20.20;67.00;;;;;;5087953;27;44733;-70
2023/05/21 01:57:00;;;;;;;3.70;3.60;;;20.20;66.80;;;;;;5088864;27;43391;-70
2023/05/21 01:59:28;;;;;;;3.20;3.10;;;20.20;66.70;;;;;;5087972;27;43468;-70
2023/05/21 02:01:56;;;;;;;3.33;3.33;;;20.20;66.80;;;;;;5086972;27;45467;-69
2023/05/21 02:04:24;;;;;;;3.37;3.30;;;20.20;67.00;;;;;;5088455;27;43371;-69
2023/05/21 02:06:53;;;;;;;3.30;3.30;;;20.20;67.00;;;;;;5087361;28;43424;-70
2023/05/21 02:09:21;;;;;;;3.40;3.30;;;20.10;66.80;;;;;;5087748;28;43502;-70
2023/05/21 02:11:49;;;;;;;3.90;3.80;;;20.10;66.70;;;;;;5088353;27;45430;-70
2023/05/21 02:14:19;;;;;;;3.70;3.60;;;20.10;67.10;;;;;;5087096;28;44732;-70
2023/05/21 02:16:47;;;;;;;3.50;3.40;;;20.00;67.40;;;;;;5087365;28;43430;-69
2023/05/21 02:19:15;;;;;;;3.43;3.40;;;20.00;67.30;;;;;;5087174;28;43518;-70
2023/05/21 02:21:43;;;;;;;3.63;3.53;;;20.00;67.20;;;;;;5086341;28;45772;-70
2023/05/21 02:24:11;;;;;;;3.47;3.43;;;20.00;67.10;;;;;;5086566;28;44762;-69
2023/05/21 02:26:39;;;;;;;3.20;3.20;;;20.00;67.10;;;;;;5088330;28;43876;-71
2023/05/21 02:29:07;;;;;;;3.50;3.40;;;19.90;67.60;;;;;;5087792;28;43406;-70
2023/05/21 02:31:37;;;;;;;3.20;3.20;;;19.90;67.50;;;;;;5087655;28;43579;-70
2023/05/21 02:34:06;;;;;;;3.80;3.70;;;19.90;67.50;;;;;;5086607;28;44763;-70
2023/05/21 02:36:35;;;;;;;3.60;3.50;;;19.90;67.20;;;;;;5088379;27;43356;-70
2023/05/21 02:39:03;;;;;;;3.90;3.80;;;19.90;67.30;;;;;;5085555;28;44122;-71
2023/05/21 02:41:31;;;;;;;3.63;3.53;;;19.90;67.70;;;;;;5088322;27;43698;-69
2023/05/21 02:43:59;;;;;;;4.20;4.10;;;19.90;67.70;;;;;;5088120;28;43982;-70
2023/05/21 02:46:27;;;;;;;3.50;3.40;;;20.00;68.40;;;;;;5085839;28;43878;-70
2023/05/21 02:48:56;;;;;;;3.60;3.50;;;20.20;67.20;;;;;;5086705;28;43901;-70
2023/05/21 02:51:24;;;;;;;3.37;3.33;;;20.30;66.60;;;;;;5086480;27;45664;-70
2023/05/21 02:53:52;;;;;;;3.43;3.33;;;20.40;66.40;;;;;;5081579;27;43484;-69
2023/05/21 02:56:20;;;;;;;3.47;3.37;;;20.40;66.20;;;;;;5080006;27;43397;-70
2023/05/21 02:58:48;;;;;;;3.23;3.23;;;20.30;66.20;;;;;;5088778;27;43952;-69
2023/05/21 03:01:16;;;;;;;3.20;3.10;;;20.30;66.30;;;;;;5085902;28;45901;-70
2023/05/21 03:03:45;;;;;;;3.57;3.47;;;20.20;66.30;;;;;;5085599;28;45778;-69
2023/05/21 03:06:15;;;;;;;3.30;3.30;;;20.20;67.00;;;;;;5085636;28;43392;-70
2023/05/21 03:08:43;;;;;;;3.53;3.43;;;20.20;67.10;;;;;;5091390;27;43454;-70
2023/05/21 03:11:11;;;;;;;3.47;3.37;;;20.10;67.00;;;;;;5086223;28;45732;-70
2023/05/21 03:13:39;;;;;;;3.77;3.67;;;20.10;66.90;;;;;;5087791;27;43984;-71
2023/05/21 03:16:07;;;;;;;4.00;3.90;;;20.10;66.90;;;;;;5085198;28;43526;-70
2023/05/21 03:18:35;;;;;;;4.27;4.07;;;20.00;67.30;;;;;;5088360;27;43494;-70
2023/05/21 03:21:04;;;;;;;4.60;4.40;;;20.00;67.50;;;;;;5086265;28;44548;-70
2023/05/21 03:23:33;;;;;;;4.80;4.50;;;20.00;67.40;;;;;;5086873;27;43390;-69
2023/05/21 03:26:01;;;;;;;4.80;4.50;;;20.00;67.20;;;;;;5086266;28;43443;-70
2023/05/21 03:28:29;;;;;;;7.00;5.17;;;20.00;67.20;;;;;;5081363;28;43374;-70
2023/05/21 03:30:58;;;;;;;6.13;5.53;;;20.00;67.30;;;;;;5088988;27;45533;-72
2023/05/21 03:33:44;;;;;;;6.97;5.47;;;19.90;67.70;;;;;;5082011;28;43537;-70
2023/05/21 03:36:19;;;;;;;6.40;5.80;;;20.00;67.60;;;;;;5083310;28;43690;-70
2023/05/21 03:38:49;;;;;;;8.40;6.10;;;20.20;67.20;;;;;;5082811;28;43956;-70
2023/05/21 03:41:17;;;;;;;8.50;6.00;;;20.30;66.60;;;;;;5085606;27;43972;-70
2023/05/21 03:43:49;;;;;;;6.47;5.67;;;20.40;66.40;;;;;;5085314;28;45052;-70
2023/05/21 03:46:20;;;;;;;6.20;5.60;;;20.40;66.30;;;;;;5084970;28;43326;-71
2023/05/21 03:49:07;;;;;;;7.63;4.90;;;20.30;66.30;;;;;;5083763;28;43490;-70
2023/05/21 03:51:38;;;;;;;7.50;5.57;;;20.30;66.30;;;;;;5085784;28;45347;-70
2023/05/21 03:54:09;;;;;;;7.47;5.93;;;20.20;66.70;;;;;;5085415;28;43405;-70
2023/05/21 03:56:37;;;;;;;7.50;6.30;;;20.10;67.00;;;;;;5085466;27;43440;-70
2023/05/21 03:59:05;;;;;;;8.23;6.27;;;20.10;67.20;;;;;;5089794;28;43383;-71
2023/05/21 04:01:33;;;;;;;6.70;6.00;;;20.10;67.00;;;;;;5089916;27;45405;-69
2023/05/21 04:04:02;;;;;;;7.07;6.17;;;20.10;67.00;;;;;;5088495;27;44098;-70
2023/05/21 04:06:32;;;;;;;10.17;6.00;;;20.00;67.10;;;;;;5089295;28;43851;-70
2023/05/21 04:09:00;;;;;;;9.50;6.13;;;20.00;67.60;;;;;;5089759;27;43541;-70
2023/05/21 04:11:31;;;;;;;10.67;6.70;;;20.00;67.60;;;;;;5089060;28;45952;-70
2023/05/21 04:13:59;;;;;;;6.93;6.20;;;20.00;67.30;;;;;;5090911;27;43692;-69
2023/05/21 04:16:27;;;;;;;7.77;6.00;;;20.00;67.30;;;;;;5090805;27;44041;-70
2023/05/21 04:18:55;;;;;;;9.03;6.37;;;20.00;67.40;;;;;;5090922;27;43442;-69
2023/05/21 04:21:26;;;;;;;10.33;6.80;;;19.90;67.90;;;;;;5084484;28;45511;-69
2023/05/21 04:23:56;;;;;;;7.13;6.43;;;20.00;67.80;;;;;;5089919;27;43365;-69
2023/05/21 04:26:34;;;;;;;8.33;6.33;;;20.10;67.50;;;;;;5092854;27;43407;-69
2023/05/21 04:29:03;;;;;;;8.63;6.53;;;20.30;66.90;;;;;;5091147;27;44023;-70
2023/05/21 04:31:32;;;;;;;9.23;6.73;;;20.30;66.60;;;;;;5088894;28;44971;-70
2023/05/21 04:34:02;;;;;;;8.23;6.50;;;20.40;66.50;;;;;;5088742;27;43472;-70
2023/05/21 04:36:30;;;;;;;10.20;7.10;;;20.40;66.60;;;;;;5088867;28;43387;-70
2023/05/21 04:38:58;;;;;;;9.40;6.57;;;20.30;66.50;;;;;;5089422;28;43575;-69
2023/05/21 04:41:27;;;;;;;9.00;7.00;;;20.20;66.60;;;;;;5086266;28;45273;-71
2023/05/21 04:43:57;;;;;;;10.33;7.07;;;20.10;67.20;;;;;;5090481;27;43845;-70
2023/05/21 04:46:33;;;;;;;7.80;6.63;;;20.10;67.30;;;;;;5088761;27;43440;-69
2023/05/21 04:49:02;;;;;;;6.57;5.97;;;20.10;67.20;;;;;;5089055;28;43526;-70
2023/05/21 04:51:30;;;;;;;7.80;6.17;;;20.10;67.10;;;;;;5088943;28;43930;-69
2023/05/21 04:53:58;;;;;;;7.37;6.17;;;20.00;67.10;;;;;;5089911;27;43447;-70
2023/05/21 04:56:26;;;;;;;8.00;7.20;;;20.00;67.50;;;;;;5088571;28;43379;-70
2023/05/21 04:58:57;;;;;;;8.37;6.90;;;20.00;67.80;;;;;;5090535;27;43433;-69
2023/05/21 05:01:25;;;;;;;8.30;6.67;;;20.10;67.60;;;;;;5088124;27;43746;-70
2023/05/21 05:03:54;;;;;;;8.20;7.27;;;20.20;67.30;;;;;;5081527;28;44499;-70
2023/05/21 05:06:24;;;;;;;9.73;6.80;;;20.20;67.10;;;;;;5088205;28;43981;-71
2023/05/21 05:08:52;;;;;;;8.50;7.03;;;20.20;67.00;;;;;;5086201;27;43562;-71
2023/05/21 05:11:21;;;;;;;7.97;7.10;;;20.20;67.30;;;;;;5087309;28;43937;-70
2023/05/21 05:13:50;;;;;;;9.27;7.57;;;20.20;67.30;;;;;;5087955;28;44865;-69
2023/05/21 05:16:23;;;;;;;7.80;6.90;;;20.20;67.20;;;;;;5089683;28;43728;-69
2023/05/21 05:18:52;;;;;;;8.67;6.87;;;20.10;66.90;;;;;;5088663;28;43569;-71
2023/05/21 05:21:22;;;;;;;10.80;7.37;;;20.10;67.00;;;;;;5087842;28;45838;-70
2023/05/21 05:23:50;;;;;;;7.97;6.43;;;20.10;67.70;;;;;;5087513;28;45049;-70
2023/05/21 05:26:21;;;;;;;9.10;7.10;;;20.10;67.60;;;;;;5082597;28;43378;-70
2023/05/21 05:28:49;;;;;;;6.83;6.23;;;20.10;67.50;;;;;;5084425;28;43601;-69
2023/05/21 05:31:19;;;;;;;7.07;6.33;;;20.00;67.20;;;;;;5087620;28;45620;-70
2023/05/21 05:33:48;;;;;;;8.43;7.03;;;20.00;67.30;;;;;;5087814;28;45601;-69
2023/05/21 05:36:16;;;;;;;9.90;7.30;;;20.00;67.80;;;;;;5088224;28;43445;-70
2023/05/21 05:38:44;;;;;;;8.77;6.90;;;20.00;67.90;;;;;;5087511;28;43534;-70
2023/05/21 05:41:12;;;;;;;7.43;6.73;;;20.10;67.70;;;;;;5087329;28;45698;-70
2023/05/21 05:43:41;;;;;;;8.77;6.90;;;20.20;67.40;;;;;;5087686;28;43893;-69
2023/05/21 05:46:09;;;;;;;7.63;6.57;;;20.20;67.20;;;;;;5087782;28;43377;-70
2023/05/21 05:48:38;;;;;;;9.23;6.77;;;20.20;67.00;;;;;;5089646;27;43350;-70
2023/05/21 05:51:06;;;;;;;7.17;6.47;;;20.20;67.40;;;;;;5087588;28;45585;-70
2023/05/21 05:53:35;;;;;;;7.20;6.60;;;20.20;67.40;;;;;;5087236;28;44891;-70
2023/05/21 05:56:03;;;;;;;7.17;6.47;;;20.20;67.40;;;;;;5088431;27;43387;-69
2023/05/21 05:58:31;;;;;;;7.13;6.43;;;20.10;67.10;;;;;;5089780;28;43947;-70
2023/05/21 06:01:09;;;;;;;7.47;6.67;;;20.10;67.00;;;;;;5087278;28;43830;-71
2023/05/21 06:03:38;;;;;;;7.90;6.73;;;20.00;67.60;;;;;;5087404;28;44640;-70
2023/05/21 06:06:11;;;;;;;7.60;6.80;;;20.00;67.60;;;;;;5087521;27;43355;-70
2023/05/21 06:08:40;;;;;;;6.93;6.10;;;20.00;67.50;;;;;;5087614;28;43458;-70
2023/05/21 06:11:08;;;;;;;7.43;6.73;;;20.00;67.40;;;;;;5088928;27;43598;-71
2023/05/21 06:13:36;;;;;;;7.77;6.60;;;20.00;67.40;;;;;;5087911;27;44631;-70
2023/05/21 06:16:06;;;;;;;6.53;5.93;;;20.00;68.60;;;;;;5087793;28;43370;-70
2023/05/21 06:18:34;;;;;;;6.73;6.20;;;20.00;68.00;;;;;;5088842;28;43477;-70
2023/05/21 06:21:03;;;;;;;10.13;6.87;;;20.10;67.70;;;;;;5086614;27;45966;-69
2023/05/21 06:23:32;;;;;;;6.67;6.03;;;20.20;67.20;;;;;;5085835;28;43465;-69
2023/05/21 06:26:00;;;;;;;6.90;6.30;;;20.30;66.90;;;;;;5088195;28;43467;-70
2023/05/21 06:28:28;;;;;;;6.10;5.60;;;20.40;66.80;;;;;;5087670;28;44156;-69
2023/05/21 06:30:58;;;;;;;6.53;5.93;;;20.30;66.70;;;;;;5086738;28;45913;-71
2023/05/21 06:33:27;;;;;;;6.83;6.13;;;20.30;66.60;;;;;;5083496;28;44916;-70
2023/05/21 06:35:55;;;;;;;6.63;6.00;;;20.20;66.70;;;;;;5088653;27;43364;-70
2023/05/21 06:38:25;;;;;;;6.60;6.00;;;20.20;67.40;;;;;;5106326;27;43573;-69
2023/05/21 06:40:53;;;;;;;7.43;5.90;;;20.10;67.50;;;;;;5087240;27;45612;-69
2023/05/21 06:43:39;;;;;;;6.57;5.97;;;20.10;67.50;;;;;;5081595;28;43327;-71
2023/05/21 06:46:36;;;;;;;6.20;5.70;;;20.00;67.20;;;;;;5088095;27;43455;-70
2023/05/21 06:49:07;;;;;;;7.10;6.33;;;20.00;67.30;;;;;;5072120;28;43491;-70
2023/05/21 06:51:35;;;;;;;6.63;6.07;;;20.00;67.90;;;;;;5087910;27;43893;-70
2023/05/21 06:54:06;;;;;;;6.47;5.87;;;20.00;67.90;;;;;;5090706;27;43544;-70
2023/05/21 06:56:36;;;;;;;6.77;6.10;;;20.00;67.80;;;;;;5087056;28;43831;-71
2023/05/21 06:59:04;;;;;;;6.80;6.20;;;20.00;67.60;;;;;;5088288;27;43438;-69
2023/05/21 07:01:33;;;;;;;6.37;5.87;;;19.90;67.50;;;;;;5081734;28;43909;-70
2023/05/21 07:04:02;;;;;;;6.20;5.70;;;19.90;68.00;;;;;;5080868;28;45094;-70
2023/05/21 07:06:31;;;;;;;6.50;6.00;;;19.90;68.20;;;;;;5086794;27;43444;-69
2023/05/21 07:08:59;;;;;;;6.63;6.00;;;20.00;68.00;;;;;;5086221;28;44023;-70
2023/05/21 07:11:29;;;;;;;6.90;6.30;;;20.20;67.60;;;;;;5087915;27;43684;-69
2023/05/21 07:13:59;;;;;;;7.33;6.50;;;20.20;67.40;;;;;;5079558;28;44759;-69
2023/05/21 07:16:27;;;;;;;6.30;5.80;;;20.20;67.20;;;;;;5077763;28;43411;-70
2023/05/21 07:18:55;;;;;;;6.00;5.60;;;20.20;67.40;;;;;;5086571;28;43563;-69
2023/05/21 07:21:23;;;;;;;5.90;5.50;;;20.20;67.50;;;;;;5087386;27;43584;-69
2023/05/21 07:23:52;;;;;;;6.00;5.60;;;20.20;67.50;;;;;;5081611;28;43526;-70
2023/05/21 07:26:21;;;;;;;5.93;5.53;;;20.10;67.20;;;;;;5087808;27;43498;-69
2023/05/21 07:28:50;;;;;;;6.10;5.60;;;20.10;67.20;;;;;;5085749;28;43979;-69
2023/05/21 07:31:19;;;;;;;6.13;5.73;;;20.00;67.50;;;;;;5084854;28;44061;-69
2023/05/21 07:33:50;;;;;;;5.77;5.37;;;20.00;67.80;;;;;;5085581;28;45190;-71
2023/05/21 07:36:22;;;;;;;5.70;5.20;;;20.00;67.80;;;;;;5079511;28;43532;-70
2023/05/21 07:38:51;;;;;;;5.87;5.47;;;20.00;67.50;;;;;;5082733;28;43510;-70
2023/05/21 07:41:20;;;;;;;6.10;5.60;;;20.00;67.50;;;;;;5085579;27;44897;-70
2023/05/21 07:43:51;;;;;;;6.40;5.90;;;20.00;67.90;;;;;;5085904;28;45021;-70
2023/05/21 07:46:20;;;;;;;5.60;5.20;;;20.00;68.20;;;;;;5085792;28;43418;-70
2023/05/21 07:48:54;;;;;;;5.03;4.70;;;20.00;67.90;;;;;;5086487;27;43420;-70
2023/05/21 07:51:22;;;;;;;6.27;5.77;;;20.10;67.60;;;;;;5085419;28;45973;-70
2023/05/21 07:53:51;;;;;;;5.80;5.40;;;20.20;67.50;;;;;;5075109;28;44748;-70
2023/05/21 07:56:28;;;;;;;6.10;5.60;;;20.20;67.40;;;;;;5084954;28;43340;-70
2023/05/21 07:58:58;;;;;;;6.03;5.47;;;20.20;67.70;;;;;;5082601;27;43613;-70
2023/05/21 08:01:28;;;;;;;5.63;5.30;;;20.10;67.60;;;;;;5084243;28;43790;-70
2023/05/21 08:03:59;;;;;;;6.27;5.87;;;20.10;67.60;;;;;;5085174;28;43888;-70
2023/05/21 08:06:27;;;;;;;5.77;5.40;;;20.10;67.40;;;;;;5085780;28;43782;-70
2023/05/21 08:08:56;;;;;;;5.80;5.40;;;20.00;67.30;;;;;;5077489;27;43565;-70
2023/05/21 08:11:27;;;;;;;5.47;5.07;;;20.00;67.50;;;;;;5076534;27;45632;-69
2023/05/21 08:13:55;;;;;;;5.57;5.17;;;20.00;68.00;;;;;;5072085;28;43500;-70
2023/05/21 08:16:25;;;;;;;5.57;5.23;;;20.00;67.90;;;;;;5097894;27;43469;-69
2023/05/21 08:18:54;;;;;;;5.20;4.90;;;20.00;67.70;;;;;;5075647;28;43597;-70
2023/05/21 08:21:22;;;;;;;5.53;5.23;;;20.00;67.70;;;;;;5074229;28;45668;-70
2023/05/21 08:23:52;;;;;;;5.70;5.30;;;19.90;67.70;;;;;;5075000;27;43952;-69
2023/05/21 08:26:20;;;;;;;5.40;5.00;;;19.90;68.20;;;;;;5079453;28;43464;-70
2023/05/21 08:28:48;;;;;;;5.07;4.77;;;19.90;68.20;;;;;;5072632;27;43380;-70
2023/05/21 08:31:18;;;;;;;5.30;5.00;;;20.00;68.10;;;;;;5069639;28;46041;-69
2023/05/21 08:33:51;;;;;;;5.57;5.17;;;20.20;67.60;;;;;;5080021;28;44848;-70
2023/05/21 08:36:24;;;;;;;5.90;5.40;;;20.30;67.40;;;;;;5073313;28;43458;-70
2023/05/21 08:38:58;;;;;;;5.53;5.13;;;20.30;67.20;;;;;;5076130;27;43402;-70
2023/05/21 08:41:35;;;;;;;5.07;4.77;;;20.30;67.10;;;;;;5066902;28;43833;-69
2023/05/21 08:44:03;;;;;;;5.73;5.33;;;20.20;67.00;;;;;;5077705;28;43444;-68
2023/05/21 08:46:32;;;;;;;5.00;4.70;;;20.10;67.10;;;;;;5078739;27;43412;-69
2023/05/21 08:49:03;;;;;;;5.57;5.27;;;20.10;67.60;;;;;;5077299;28;43523;-69
2023/05/21 08:51:32;;;;;;;5.70;5.37;;;20.10;67.90;;;;;;5075889;27;45997;-69
2023/05/21 08:54:01;;;;;;;5.73;5.30;;;20.00;67.80;;;;;;5078598;28;44815;-69
2023/05/21 08:56:31;;;;;;;5.20;4.80;;;20.00;67.60;;;;;;5075249;28;43472;-69
2023/05/21 08:58:59;;;;;;;5.00;4.70;;;20.00;67.80;;;;;;5075394;28;43434;-69
2023/05/21 09:01:32;;;;;;;5.60;5.20;;;19.90;68.00;;;;;;5076206;28;46304;-70
2023/05/21 09:04:12;;;;;;;5.13;4.90;;;20.00;68.30;;;;;;5085816;27;43928;-70
2023/05/21 09:06:46;;;;;;;5.10;4.87;;;20.00;68.10;;;;;;5078663;28;43441;-70
2023/05/21 09:09:19;;;;;;;4.77;4.53;;;20.10;67.90;;;;;;5069214;28;43506;-70
2023/05/21 09:11:49;;;;;;;5.27;4.97;;;20.10;67.60;;;;;;5073073;28;44986;-70
2023/05/21 09:14:17;;;;;;;5.47;5.07;;;20.10;67.50;;;;;;5072614;28;43435;-69
2023/05/21 09:17:13;;;;;;;4.77;4.53;;;20.10;67.90;;;;;;5073445;28;43472;-69
2023/05/21 09:20:13;;;;;;;4.73;4.53;;;20.10;67.90;;;;;;5082186;28;43793;-70
2023/05/21 09:22:49;;;;;;;4.67;4.47;;;20.10;67.80;;;;;;5082520;28;44960;-69
2023/05/21 09:25:18;;;;;;;5.00;4.80;;;20.00;67.60;;;;;;5093002;27;44728;-69
2023/05/21 09:27:47;;;;;;;5.13;4.87;;;20.00;67.80;;;;;;5089315;27;44011;-69
2023/05/21 09:30:16;;;;;;;5.20;4.90;;;20.00;68.30;;;;;;5080306;28;43477;-70
2023/05/21 09:32:44;;;;;;;5.30;5.00;;;19.90;68.20;;;;;;5082184;27;45763;-71
2023/05/21 09:35:14;;;;;;;4.80;4.53;;;20.00;68.20;;;;;;5085773;28;43426;-70
2023/05/21 09:37:43;;;;;;;4.63;4.43;;;19.90;67.90;;;;;;5088232;28;43982;-70
2023/05/21 09:40:12;;;;;;;4.53;4.33;;;19.90;68.00;;;;;;5084477;28;43896;-70
2023/05/21 09:42:41;;;;;;;4.70;4.50;;;19.90;68.20;;;;;;5088296;27;44025;-71
2023/05/21 09:45:11;;;;;;;4.80;4.60;;;19.90;68.40;;;;;;5086547;28;43838;-70
2023/05/21 09:47:43;;;;;;;4.80;4.50;;;20.00;68.30;;;;;;5083020;27;44091;-71
2023/05/21 09:50:11;;;;;;;4.80;4.60;;;20.10;67.90;;;;;;5087696;28;43652;-71
2023/05/21 09:52:41;;;;;;;4.53;4.33;;;20.20;67.40;;;;;;5088935;27;44067;-70
2023/05/21 09:55:12;;;;;;;4.77;4.57;;;20.30;67.40;;;;;;5087695;27;44675;-70
2023/05/21 09:57:41;;;;;;;4.67;4.47;;;20.30;67.30;;;;;;5083152;27;43437;-70
2023/05/21 10:00:11;;;;;;;4.40;4.20;;;20.20;67.00;;;;;;5088359;28;43909;-70
2023/05/21 10:02:40;;;;;;;4.10;4.00;;;20.20;67.30;;;;;;5088634;27;43577;-71
2023/05/21 10:05:09;;;;;;;4.50;4.30;;;20.10;67.60;;;;;;5087198;27;44607;-69
2023/05/21 10:07:37;;;;;;;4.70;4.40;;;20.10;67.90;;;;;;5089030;27;43366;-70
2023/05/21 10:10:07;;;;;;;4.50;4.30;;;20.10;67.80;;;;;;5086647;28;43533;-70
2023/05/21 10:12:36;;;;;;;4.30;4.10;;;20.00;67.70;;;;;;5089105;27;43916;-68
2023/05/21 10:15:06;;;;;;;4.70;4.50;;;20.00;67.70;;;;;;5087416;27;44424;-70
2023/05/21 10:17:34;;;;;;;4.73;4.53;;;20.00;68.20;;;;;;5084208;27;43431;-69
2023/05/21 10:20:03;;;;;;;4.70;4.50;;;20.00;69.00;;;;;;5088961;27;43458;-70
2023/05/21 10:22:32;;;;;;;4.57;4.37;;;20.00;68.20;;;;;;5087916;27;43598;-69
2023/05/21 10:25:01;;;;;;;4.80;4.53;;;20.00;68.80;;;;;;5088785;27;43386;-70
2023/05/21 10:27:31;;;;;;;4.47;4.27;;;20.00;68.10;;;;;;5088421;27;43434;-69
2023/05/21 10:29:59;;;;;;;4.60;4.40;;;19.90;68.20;;;;;;5089348;27;43462;-70
2023/05/21 10:32:27;;;;;;;4.27;4.07;;;19.90;68.40;;;;;;5087174;28;43826;-70
2023/05/21 10:34:55;;;;;;;4.60;4.40;;;20.00;68.20;;;;;;5088567;27;43312;-70
2023/05/21 10:37:27;;;;;;;4.30;4.10;;;20.20;68.10;;;;;;5087215;27;43422;-70
2023/05/21 10:39:55;;;;;;;4.40;4.20;;;20.30;67.60;;;;;;5084921;27;43537;-70
2023/05/21 10:42:37;;;;;;;4.93;4.63;;;20.30;67.30;;;;;;5083347;28;45772;-70
2023/05/21 10:45:11;;;;;;;4.23;4.13;;;20.30;67.20;;;;;;5086416;27;43453;-70
2023/05/21 10:48:00;;;;;;;4.50;4.30;;;20.30;67.90;;;;;;5086951;27;44005;-70
2023/05/21 10:50:40;;;;;;;4.23;4.03;;;20.20;67.20;;;;;;5088085;28;43906;-70
2023/05/21 10:53:12;;;;;;;4.27;4.17;;;20.20;67.60;;;;;;5087067;28;45661;-70
2023/05/21 10:55:48;;;;;;;4.80;4.60;;;20.10;67.90;;;;;;5082020;28;43466;-71
2023/05/21 10:58:52;;;;;;;4.00;3.90;;;20.10;67.80;;;;;;5083090;28;43303;-69
2023/05/21 11:01:22;;;;;;;4.20;4.10;;;20.10;67.80;;;;;;5085139;28;43560;-70
2023/05/21 11:03:52;;;;;;;4.60;4.40;;;20.10;67.90;;;;;;5087011;28;43844;-69
2023/05/21 11:06:23;;;;;;;4.40;4.20;;;20.00;68.30;;;;;;5084720;28;43415;-70
2023/05/21 11:08:52;;;;;;;4.20;4.10;;;20.00;68.30;;;;;;5086179;28;43488;-69
2023/05/21 11:11:42;;;;;;;4.50;4.30;;;20.00;68.20;;;;;;5087878;28;43347;-70
2023/05/21 11:14:30;;;;;;;4.47;4.20;;;20.00;68.00;;;;;;5085177;28;43871;-70
2023/05/21 11:17:00;;;;;;;3.90;3.80;;;20.00;68.10;;;;;;5080051;28;45002;-70
2023/05/21 11:19:36;;;;;;;4.40;4.20;;;20.00;68.50;;;;;;5085879;28;43367;-69
2023/05/21 11:22:09;;;;;;;4.47;4.27;;;20.00;68.40;;;;;;5082862;28;43936;-70
2023/05/21 11:24:40;;;;;;;3.93;3.83;;;20.10;68.20;;;;;;5087651;27;43681;-69
2023/05/21 11:27:11;;;;;;;4.20;4.00;;;20.30;67.90;;;;;;5086842;27;43999;-72
2023/05/21 11:29:43;;;;;;;4.13;3.93;;;20.30;67.50;;;;;;5087914;27;43951;-70
2023/05/21 11:32:14;;;;;;;4.37;4.17;;;20.30;67.40;;;;;;5086709;28;43925;-69
2023/05/21 11:34:44;;;;;;;3.80;3.70;;;20.20;67.20;;;;;;5091094;27;44021;-68
2023/05/21 11:37:32;;;;;;;3.83;3.73;;;20.20;67.40;;;;;;5087846;27;43426;-68
2023/05/21 11:40:19;;;;;;;3.90;3.80;;;20.10;67.50;;;;;;5082649;28;43449;-69
2023/05/21 11:42:51;;;;;;;4.40;4.20;;;20.10;68.10;;;;;;5085830;28;43493;-69
2023/05/21 11:45:20;;;;;;;3.90;3.80;;;20.10;68.10;;;;;;5085892;28;45792;-70
2023/05/21 11:47:50;;;;;;;4.03;3.93;;;20.10;67.90;;;;;;5087833;27;43379;-69
2023/05/21 11:50:19;;;;;;;4.30;4.10;;;20.00;67.90;;;;;;5086911;27;43341;-69
2023/05/21 11:52:47;;;;;;;4.30;4.10;;;20.00;68.00;;;;;;5083328;28;43514;-69
2023/05/21 11:55:17;;;;;;;4.60;4.40;;;20.00;68.30;;;;;;5088484;27;45662;-68
2023/05/21 11:57:46;;;;;;;3.80;3.70;;;20.00;68.50;;;;;;5087180;27;43328;-69
2023/05/21 12:00:17;;;;;;;4.00;3.90;;;20.10;68.40;;;;;;5086022;28;43454;-71
2023/05/21 12:02:47;;;;;;;4.33;4.23;;;20.10;68.10;;;;;;5085744;27;43975;-70
2023/05/21 12:05:17;;;;;;;4.33;4.23;;;20.20;68.00;;;;;;5087380;27;43704;-69
2023/05/21 12:07:49;;;;;;;4.30;4.20;;;20.10;67.80;;;;;;5085728;27;43476;-71
2023/05/21 12:10:21;;;;;;;4.30;4.10;;;20.10;68.00;;;;;;5085421;27;43393;-69
2023/05/21 12:12:51;;;;;;;4.33;4.23;;;20.10;68.00;;;;;;5085465;28;43901;-70
2023/05/21 12:15:24;;;;;;;4.33;4.13;;;20.10;67.90;;;;;;5080934;28;43579;-70
2023/05/21 12:17:53;;;;;;;4.43;4.30;;;20.10;67.90;;;;;;5084393;27;43390;-70
2023/05/21 12:20:23;;;;;;;4.20;4.10;;;20.00;67.90;;;;;;5088933;28;43447;-70
2023/05/21 12:22:51;;;;;;;3.87;3.77;;;20.00;68.30;;;;;;5090017;27;44158;-70
2023/05/21 12:25:19;;;;;;;4.00;3.90;;;20.00;68.20;;;;;;5090615;27;43859;-70
2023/05/21 12:27:49;;;;;;;3.90;3.80;;;20.00;68.20;;;;;;5090592;27;43432;-71
2023/05/21 12:30:17;;;;;;;4.20;4.10;;;20.00;68.20;;;;;;5088881;27;43429;-70
2023/05/21 12:32:45;;;;;;;4.13;4.03;;;20.00;68.30;;;;;;5085172;28;43411;-71
2023/05/21 12:35:26;;;;;;;4.00;3.90;;;19.90;68.50;;;;;;5090048;27;43856;-70
2023/05/21 12:37:56;;;;;;;4.27;4.17;;;20.00;68.60;;;;;;5090097;27;43398;-69
2023/05/21 12:40:34;;;;;;;3.93;3.83;;;20.00;68.40;;;;;;5087127;27;43421;-70
2023/05/21 12:43:02;;;;;;;4.17;4.07;;;20.20;68.00;;;;;;5090745;27;43479;-70
2023/05/21 12:45:31;;;;;;;3.80;3.70;;;20.30;67.70;;;;;;5090168;28;43653;-70
2023/05/21 12:48:01;;;;;;;4.17;3.97;;;20.30;67.40;;;;;;5088015;28;44424;-70
2023/05/21 12:50:34;;;;;;;4.13;4.03;;;20.30;67.30;;;;;;5089380;27;43341;-70
2023/05/21 12:53:02;;;;;;;4.03;3.93;;;20.20;67.40;;;;;;5089979;27;43564;-70
2023/05/21 12:55:30;;;;;;;4.20;4.10;;;20.20;67.70;;;;;;5090039;27;43816;-70
2023/05/21 12:58:03;;;;;;;4.40;4.20;;;20.10;68.20;;;;;;5089733;27;43352;-70
2023/05/21 13:00:32;;;;;;;4.20;4.10;;;20.10;68.20;;;;;;5090086;27;43386;-71